createdAt,value
2023-02-17T00:01:17.518Z,84.03
2023-02-17T00:03:49.152Z,84.97
2023-02-17T00:06:24.026Z,81.23
2023-02-17T00:08:56.797Z,81.30
2023-02-17T00:11:29.449Z,82.00
2023-02-17T00:14:01.266Z,81.80
2023-02-17T00:16:33.434Z,79.93
2023-02-17T00:19:25.233Z,78.87
2023-02-17T00:21:58.438Z,80.27
2023-02-17T00:24:33.146Z,81.60
2023-02-17T00:27:04.594Z,83.27
2023-02-17T00:29:36.439Z,83.63
2023-02-17T00:32:08.242Z,82.27
2023-02-17T00:34:39.655Z,85.73
2023-02-17T00:37:10.919Z,79.60
2023-02-17T00:39:43.614Z,83.47
2023-02-17T00:42:14.948Z,82.57
2023-02-17T00:44:46.211Z,85.97
2023-02-17T00:47:17.426Z,84.97
2023-02-17T00:49:48.959Z,84.00
2023-02-17T00:52:20.217Z,80.87
2023-02-17T00:54:52.509Z,79.17
2023-02-17T00:57:23.743Z,83.17
2023-02-17T00:59:54.993Z,82.90
2023-02-17T01:02:26.556Z,80.73
2023-02-17T01:04:57.774Z,78.67
2023-02-17T01:07:29.306Z,78.73
2023-02-17T01:10:02.374Z,78.97
2023-02-17T01:12:33.970Z,77.87
2023-02-17T01:15:05.443Z,76.20
2023-02-17T01:17:36.924Z,75.90
2023-02-17T01:20:09.565Z,77.23
2023-02-17T01:22:41.946Z,79.30
2023-02-17T01:25:14.686Z,75.80
2023-02-17T01:27:46.041Z,78.07
2023-02-17T01:30:17.846Z,76.07
2023-02-17T01:32:49.344Z,77.17
2023-02-17T01:35:20.478Z,78.57
2023-02-17T01:37:51.785Z,79.00
2023-02-17T01:40:24.627Z,76.97
2023-02-17T01:42:55.612Z,78.83
2023-02-17T01:45:46.908Z,78.90
2023-02-17T01:48:19.947Z,76.67
2023-02-17T01:50:54.559Z,78.20
2023-02-17T01:53:28.506Z,80.57
2023-02-17T01:56:00.957Z,77.07
2023-02-17T01:58:32.946Z,78.23
2023-02-17T02:01:07.101Z,80.83
2023-02-17T02:03:39.989Z,77.97
2023-02-17T02:06:15.534Z,78.63
2023-02-17T02:08:54.462Z,79.30
2023-02-17T02:11:27.684Z,82.30
2023-02-17T02:13:59.107Z,79.90
2023-02-17T02:16:33.821Z,80.67
2023-02-17T02:19:11.387Z,78.37
2023-02-17T02:22:09.545Z,77.80
2023-02-17T02:24:50.348Z,75.07
2023-02-17T02:27:42.692Z,78.00
2023-02-17T02:30:46.089Z,76.67
2023-02-17T02:33:29.810Z,79.73
2023-02-17T02:36:06.058Z,76.10
2023-02-17T02:38:41.404Z,77.97
2023-02-17T02:41:15.232Z,80.63
2023-02-17T02:43:46.859Z,79.13
2023-02-17T02:46:18.042Z,79.83
2023-02-17T02:48:50.988Z,75.07
2023-02-17T02:51:35.751Z,78.67
2023-02-17T02:54:34.284Z,77.20
2023-02-17T02:57:21.594Z,77.40
2023-02-17T03:00:05.564Z,77.67
2023-02-17T03:02:43.691Z,75.67
2023-02-17T03:05:19.830Z,78.07
2023-02-17T03:07:55.382Z,80.40
2023-02-17T03:10:26.622Z,78.73
2023-02-17T03:12:58.084Z,77.77
2023-02-17T03:15:31.806Z,77.50
2023-02-17T03:18:03.661Z,75.00
2023-02-17T03:20:39.983Z,76.67
2023-02-17T03:23:11.898Z,76.97
2023-02-17T03:25:46.018Z,76.40
2023-02-17T03:28:17.652Z,74.90
2023-02-17T03:30:49.124Z,74.37
2023-02-17T03:33:20.221Z,76.83
2023-02-17T03:35:53.438Z,76.07
2023-02-17T03:38:24.637Z,77.53
2023-02-17T03:40:55.806Z,75.70
2023-02-17T03:43:27.915Z,75.77
2023-02-17T03:45:59.008Z,77.13
2023-02-17T03:48:30.358Z,75.47
2023-02-17T03:51:03.028Z,74.70
2023-02-17T03:53:34.193Z,77.67
2023-02-17T03:56:05.582Z,78.67
2023-02-17T03:58:37.610Z,77.33
2023-02-17T04:01:09.443Z,78.03
2023-02-17T04:03:41.721Z,78.47
2023-02-17T04:06:14.763Z,78.00
2023-02-17T04:08:45.909Z,78.17
2023-02-17T04:11:16.966Z,77.50
2023-02-17T04:13:47.979Z,77.47
2023-02-17T04:16:19.031Z,73.67
2023-02-17T04:18:50.103Z,78.37
2023-02-17T04:21:22.506Z,81.63
2023-02-17T04:23:55.538Z,81.33
2023-02-17T04:26:27.474Z,81.13
2023-02-17T04:28:58.628Z,82.33
2023-02-17T04:31:29.863Z,83.20
2023-02-17T04:34:01.325Z,77.67
2023-02-17T04:36:33.952Z,79.43
2023-02-17T04:39:05.281Z,80.57
2023-02-17T04:41:36.273Z,81.10
2023-02-17T04:44:07.808Z,79.83
2023-02-17T04:46:38.990Z,77.30
2023-02-17T04:49:14.342Z,81.87
2023-02-17T04:51:47.216Z,77.10
2023-02-17T04:54:18.784Z,80.33
2023-02-17T04:56:50.109Z,76.90
2023-02-17T04:59:21.349Z,78.33
2023-02-17T05:01:52.802Z,77.80
2023-02-17T05:04:24.212Z,79.30
2023-02-17T05:06:57.036Z,77.73
2023-02-17T05:09:28.612Z,77.77
2023-02-17T05:12:00.140Z,79.20
2023-02-17T05:14:31.810Z,80.67
2023-02-17T05:17:02.886Z,76.93
2023-02-17T05:19:34.166Z,78.17
2023-02-17T05:22:06.661Z,78.80
2023-02-17T05:24:39.001Z,76.43
2023-02-17T05:27:10.764Z,75.40
2023-02-17T05:29:42.624Z,78.80
2023-02-17T05:32:14.044Z,75.63
2023-02-17T05:34:45.509Z,76.03
2023-02-17T05:40:04.774Z,77.67
2023-02-17T05:42:35.794Z,76.70
2023-02-17T05:45:07.055Z,77.53
2023-02-17T05:47:38.738Z,79.23
2023-02-17T05:50:11.200Z,80.13
2023-02-17T05:52:42.586Z,77.53
2023-02-17T05:55:15.155Z,77.93
2023-02-17T05:57:46.769Z,80.40
2023-02-17T06:00:19.121Z,81.23
2023-02-17T06:02:50.756Z,78.43
2023-02-17T06:05:22.074Z,76.90
2023-02-17T06:07:53.275Z,79.50
2023-02-17T06:10:26.638Z,77.50
2023-02-17T06:12:57.913Z,78.63
2023-02-17T06:15:30.842Z,76.63
2023-02-17T06:18:02.071Z,77.10
2023-02-17T06:20:33.618Z,76.57
2023-02-17T06:23:04.995Z,72.97
2023-02-17T06:25:38.031Z,70.40
2023-02-17T06:28:09.187Z,72.77
2023-02-17T06:30:40.531Z,74.73
2023-02-17T06:33:12.184Z,72.80
2023-02-17T06:35:45.482Z,73.47
2023-02-17T06:38:17.050Z,74.90
2023-02-17T06:40:49.784Z,72.73
2023-02-17T06:43:21.784Z,71.33
2023-02-17T06:45:53.670Z,74.00
2023-02-17T06:48:25.063Z,74.83
2023-02-17T06:50:56.464Z,77.17
2023-02-17T06:53:27.874Z,74.43
2023-02-17T06:56:00.457Z,75.60
2023-02-17T06:58:32.434Z,75.20
2023-02-17T07:01:03.550Z,75.43
2023-02-17T07:03:34.939Z,79.37
2023-02-17T07:06:06.703Z,76.10
2023-02-17T07:08:38.095Z,75.77
2023-02-17T07:11:11.846Z,74.37
2023-02-17T07:13:43.811Z,78.20
2023-02-17T07:16:16.660Z,74.73
2023-02-17T07:18:48.451Z,77.10
2023-02-17T07:21:20.112Z,77.00
2023-02-17T07:23:51.273Z,79.13
2023-02-17T07:26:23.679Z,75.33
2023-02-17T07:28:55.203Z,79.63
2023-02-17T07:31:26.649Z,77.97
2023-02-17T07:33:58.145Z,76.50
2023-02-17T07:36:29.085Z,78.03
2023-02-17T07:39:01.080Z,75.20
2023-02-17T07:41:34.676Z,80.13
2023-02-17T07:44:05.870Z,80.00
2023-02-17T07:46:37.365Z,77.00
2023-02-17T07:49:08.851Z,80.80
2023-02-17T07:51:40.519Z,78.93
2023-02-17T07:54:14.280Z,80.97
2023-02-17T07:56:47.451Z,81.27
2023-02-17T07:59:18.590Z,80.30
2023-02-17T08:01:50.878Z,81.70
2023-02-17T08:04:22.465Z,80.93
2023-02-17T08:06:53.744Z,80.53
2023-02-17T08:09:41.158Z,80.47
2023-02-17T08:12:34.921Z,77.60
2023-02-17T08:15:06.485Z,75.83
2023-02-17T08:17:37.846Z,77.80
2023-02-17T08:20:10.557Z,80.63
2023-02-17T08:22:41.702Z,82.90
2023-02-17T08:25:12.811Z,80.30
2023-02-17T08:28:01.229Z,81.27
2023-02-17T08:30:32.453Z,79.57
2023-02-17T08:33:04.274Z,78.47
2023-02-17T08:35:35.154Z,79.83
2023-02-17T08:38:06.661Z,77.10
2023-02-17T08:40:37.813Z,74.23
2023-02-17T08:43:12.260Z,74.10
2023-02-17T08:45:43.562Z,70.60
2023-02-17T08:48:15.141Z,69.97
2023-02-17T08:50:46.622Z,73.30
2023-02-17T08:53:17.996Z,67.20
2023-02-17T08:55:49.956Z,69.83
2023-02-17T08:58:22.813Z,66.00
2023-02-17T09:00:54.509Z,69.87
2023-02-17T09:03:25.910Z,68.80
2023-02-17T09:05:57.593Z,72.33
2023-02-17T09:08:29.455Z,67.37
2023-02-17T09:11:01.078Z,69.23
2023-02-17T09:13:33.974Z,68.77
2023-02-17T09:16:06.030Z,68.50
2023-02-17T09:18:37.396Z,69.63
2023-02-17T09:21:10.453Z,69.70
2023-02-17T09:23:41.542Z,67.93
2023-02-17T09:26:14.653Z,66.53
2023-02-17T09:28:47.629Z,65.47
2023-02-17T09:31:22.145Z,66.47
2023-02-17T09:33:53.785Z,63.03
2023-02-17T09:36:26.180Z,62.40
2023-02-17T09:38:58.301Z,62.93
2023-02-17T09:41:32.867Z,60.17
2023-02-17T09:44:05.699Z,55.77
2023-02-17T09:47:00.598Z,57.60
2023-02-17T09:49:38.912Z,56.43
2023-02-17T09:52:17.084Z,56.03
2023-02-17T09:54:55.726Z,55.37
2023-02-17T09:57:28.760Z,52.77
2023-02-17T10:00:07.186Z,54.43
2023-02-17T10:02:43.924Z,55.23
2023-02-17T10:05:21.301Z,56.13
2023-02-17T10:07:56.138Z,55.57
2023-02-17T10:10:29.935Z,53.90
2023-02-17T10:13:03.795Z,55.07
2023-02-17T10:15:40.056Z,58.83
2023-02-17T10:18:15.760Z,54.50
2023-02-17T10:20:51.034Z,57.10
2023-02-17T10:23:27.084Z,54.37
2023-02-17T10:26:11.064Z,52.97
2023-02-17T10:28:50.679Z,53.27
2023-02-17T10:31:32.474Z,53.03
2023-02-17T10:34:06.521Z,52.27
2023-02-17T10:36:45.737Z,50.17
2023-02-17T10:39:18.611Z,51.30
2023-02-17T10:41:51.511Z,51.93
2023-02-17T10:44:25.584Z,52.73
2023-02-17T10:46:58.606Z,51.33
2023-02-17T10:49:32.288Z,54.60
2023-02-17T10:52:05.125Z,53.37
2023-02-17T10:54:39.518Z,51.63
2023-02-17T10:57:30.320Z,51.30
2023-02-17T11:00:02.279Z,54.17
2023-02-17T11:02:39.232Z,53.80
2023-02-17T11:05:11.196Z,54.13
2023-02-17T11:07:43.950Z,55.20
2023-02-17T11:10:25.497Z,54.07
2023-02-17T11:12:59.150Z,53.57
2023-02-17T11:15:33.334Z,59.10
2023-02-17T11:18:13.423Z,59.13
2023-02-17T11:20:44.793Z,56.50
2023-02-17T11:23:27.661Z,60.40
2023-02-17T11:26:12.303Z,54.80
2023-02-17T11:28:40.118Z,54.20
2023-02-17T11:31:09.397Z,54.87
2023-02-17T11:33:40.494Z,54.83
2023-02-17T11:36:13.646Z,56.60
2023-02-17T11:38:46.598Z,55.37
2023-02-17T11:41:14.947Z,56.30
2023-02-17T11:43:53.322Z,57.37
2023-02-17T11:46:28.123Z,57.40
2023-02-17T11:49:35.279Z,52.30
2023-02-17T11:52:13.546Z,55.90
2023-02-17T11:54:52.702Z,57.90
2023-02-17T11:57:31.333Z,57.67
2023-02-17T12:00:07.201Z,59.83
2023-02-17T12:03:02.932Z,59.97
2023-02-17T12:05:38.641Z,55.67
2023-02-17T12:08:19.689Z,54.13
2023-02-17T12:10:59.904Z,53.17
2023-02-17T12:13:39.396Z,54.60
2023-02-17T12:16:16.160Z,53.83
2023-02-17T12:18:52.133Z,54.53
2023-02-17T12:21:28.325Z,53.27
2023-02-17T12:24:32.360Z,55.03
2023-02-17T12:27:06.660Z,50.20
2023-02-17T12:29:50.824Z,51.50
2023-02-17T12:32:28.533Z,52.53
2023-02-17T12:34:59.340Z,53.13
2023-02-17T12:37:29.998Z,52.63
2023-02-17T12:40:01.937Z,53.07
2023-02-17T12:42:33.460Z,51.87
2023-02-17T12:45:04.999Z,52.13
2023-02-17T12:47:38.836Z,50.40
2023-02-17T12:50:12.171Z,49.20
2023-02-17T12:52:42.382Z,51.37
2023-02-17T13:02:30.826Z,48.00
2023-02-17T13:05:03.053Z,51.30
2023-02-17T13:07:44.700Z,55.40
2023-02-17T13:10:31.556Z,52.60
2023-02-17T13:13:02.519Z,53.23
2023-02-17T13:15:36.244Z,51.57
2023-02-17T13:18:10.363Z,53.43
2023-02-17T13:21:01.523Z,53.00
2023-02-17T13:23:40.996Z,51.33
2023-02-17T13:26:25.886Z,50.73
2023-02-17T13:29:26.503Z,51.00
2023-02-17T13:35:44.967Z,45.60
2023-02-17T13:40:47.984Z,49.27
2023-02-17T13:43:17.996Z,51.80
2023-02-17T13:45:49.998Z,49.73
2023-02-17T13:48:25.491Z,51.70
2023-02-17T13:50:58.218Z,53.43
2023-02-17T13:54:50.220Z,52.10
2023-02-17T14:01:37.258Z,49.00
2023-02-17T14:07:59.539Z,55.17
2023-02-17T14:10:28.325Z,52.87
2023-02-17T14:12:56.822Z,53.47
2023-02-17T14:15:26.512Z,50.83
2023-02-17T14:17:56.110Z,51.57
2023-02-17T14:20:32.199Z,51.70
2023-02-17T14:23:06.218Z,51.97
2023-02-17T14:25:39.324Z,51.83
2023-02-17T14:28:19.387Z,51.90
2023-02-17T15:03:53.696Z,45.93
2023-02-17T15:06:26.485Z,46.47
2023-02-17T15:08:55.793Z,49.20
2023-02-17T15:11:28.944Z,49.53
2023-02-17T15:13:56.812Z,50.20
2023-02-17T15:16:24.669Z,48.93
2023-02-17T15:18:53.951Z,50.00
2023-02-17T15:21:26.600Z,51.47
2023-02-17T15:23:54.963Z,51.73
2023-02-17T15:26:22.900Z,52.97
2023-02-17T15:28:50.690Z,53.90
2023-02-17T15:31:20.828Z,53.27
2023-02-17T15:33:56.757Z,54.40
2023-02-17T15:36:25.128Z,52.87
2023-02-17T15:38:53.153Z,54.10
2023-02-17T15:41:22.705Z,53.97
2023-02-17T15:43:51.285Z,51.67
2023-02-17T15:46:20.392Z,54.27
2023-02-17T15:48:49.927Z,54.83
2023-02-17T15:51:20.322Z,54.07
2023-02-17T15:53:48.375Z,55.17
2023-02-17T15:56:19.642Z,53.83
2023-02-17T15:58:48.804Z,55.37
2023-02-17T16:01:19.782Z,54.07
2023-02-17T16:03:47.570Z,55.27
2023-02-17T16:06:15.289Z,55.97
2023-02-17T16:08:44.630Z,54.13
2023-02-17T16:11:13.516Z,54.20
2023-02-17T16:13:41.658Z,54.60
2023-02-17T16:16:17.352Z,53.70
2023-02-17T16:18:45.167Z,56.87
2023-02-17T16:21:14.152Z,54.23
2023-02-17T16:23:42.222Z,57.60
2023-02-17T16:26:16.711Z,55.10
2023-02-17T16:28:45.726Z,58.67
2023-02-17T16:31:13.565Z,56.53
2023-02-17T16:33:41.445Z,55.30
2023-02-17T16:36:15.080Z,55.53
2023-02-17T16:38:43.254Z,54.50
2023-02-17T16:41:15.495Z,58.33
2023-02-17T16:43:43.770Z,56.07
2023-02-17T16:46:21.606Z,55.87
2023-02-17T16:48:53.201Z,55.63
2023-02-17T16:51:24.172Z,56.63
2023-02-17T16:53:55.562Z,57.40
2023-02-17T16:56:31.325Z,57.67
2023-02-17T16:59:03.166Z,58.83
2023-02-17T17:01:34.731Z,58.20
2023-02-17T17:04:06.535Z,56.50
2023-02-17T17:06:39.102Z,54.47
2023-02-17T17:09:10.908Z,55.43
2023-02-17T17:11:44.161Z,57.13
2023-02-17T17:14:15.671Z,56.37
2023-02-17T17:16:50.643Z,56.27
2023-02-17T17:19:22.378Z,53.50
2023-02-17T17:21:53.670Z,58.17
2023-02-17T17:24:25.242Z,57.47
2023-02-17T17:26:58.220Z,55.03
2023-02-17T17:29:29.798Z,57.63
2023-02-17T17:32:01.655Z,55.90
2023-02-17T17:34:32.881Z,55.40
2023-02-17T18:24:51.410Z,44.30
2023-02-17T18:27:19.249Z,46.00
2023-02-17T18:29:47.106Z,49.77
2023-02-17T18:32:14.915Z,53.17
2023-02-17T18:34:42.721Z,51.17
2023-02-17T18:37:10.500Z,52.13
2023-02-17T18:39:38.247Z,53.43
2023-02-17T18:42:07.645Z,51.20
2023-02-17T18:44:35.420Z,53.30
2023-02-17T18:47:03.195Z,53.57
2023-02-17T18:49:31.229Z,53.90
2023-02-17T18:51:58.951Z,51.67
2023-02-17T18:54:26.702Z,53.90
2023-02-17T18:56:54.455Z,55.57
2023-02-17T18:59:23.649Z,55.23
2023-02-17T19:01:51.518Z,53.50
2023-02-17T19:04:19.331Z,55.50
2023-02-17T19:06:47.055Z,56.77
2023-02-17T19:09:14.879Z,56.93
2023-02-17T19:11:42.681Z,55.33
2023-02-17T19:30:05.761Z,48.20
2023-02-17T19:32:33.520Z,46.80
2023-02-17T19:35:01.336Z,48.67
2023-02-17T19:37:29.208Z,49.03
2023-02-17T19:39:57.060Z,46.70
2023-02-17T19:42:25.256Z,47.13
2023-02-17T19:44:53.086Z,47.87
2023-02-17T19:47:22.476Z,51.10
2023-02-17T19:49:50.219Z,51.97
2023-02-17T19:52:18.109Z,50.50
2023-02-17T19:54:45.915Z,47.83
2023-02-17T19:57:17.279Z,52.70
2023-02-17T19:59:45.475Z,52.00
2023-02-17T20:02:14.794Z,54.40
2023-02-17T20:04:44.662Z,50.87
2023-02-17T20:07:12.555Z,50.40
2023-02-17T20:09:40.388Z,49.07
2023-02-17T20:12:08.776Z,47.07
2023-02-17T20:14:36.593Z,49.37
2023-02-17T20:17:04.854Z,47.10
2023-02-17T20:19:32.684Z,47.97
2023-02-17T20:22:02.207Z,49.03
2023-02-17T20:24:29.968Z,50.27
2023-02-17T20:26:57.786Z,49.20
2023-02-17T20:29:25.633Z,52.20
2023-02-17T20:31:53.597Z,52.07
2023-02-17T20:34:27.569Z,50.77
2023-02-17T20:36:55.819Z,53.40
2023-02-17T20:39:25.816Z,54.97
2023-02-17T20:41:53.755Z,52.77
2023-02-17T20:44:21.649Z,53.20
2023-02-17T20:46:49.524Z,52.87
2023-02-17T20:49:17.544Z,52.67
2023-02-17T20:51:45.315Z,49.53
2023-02-17T20:54:13.143Z,53.73
2023-02-17T20:56:43.778Z,51.33
2023-02-17T20:59:13.232Z,50.33
2023-02-17T21:01:41.521Z,47.67
2023-02-17T21:04:09.444Z,49.07
2023-02-17T21:06:39.656Z,48.60
2023-02-17T21:09:09.019Z,50.17
2023-02-17T21:11:36.810Z,48.07
2023-02-17T21:14:05.926Z,46.40
2023-02-17T21:16:34.350Z,47.23
2023-02-17T21:19:02.597Z,47.80
2023-02-17T21:21:30.714Z,46.80
2023-02-17T21:23:59.096Z,46.30
2023-02-17T21:26:27.544Z,45.63
2023-02-17T21:28:55.779Z,45.53
2023-02-17T21:31:27.013Z,45.87
2023-02-17T21:33:54.916Z,44.63
2023-02-17T21:36:22.755Z,46.27
2023-02-17T21:38:50.554Z,45.50
2023-02-17T21:41:21.430Z,43.37
2023-02-17T21:44:07.269Z,43.13
2023-02-17T21:46:37.411Z,44.40
2023-02-17T21:49:05.637Z,41.37
2023-02-17T21:51:33.600Z,41.57
2023-02-17T21:54:01.400Z,42.77
2023-02-17T21:56:29.253Z,41.40
2023-02-17T21:58:57.999Z,40.63
2023-02-17T22:01:27.436Z,42.33
2023-02-17T22:03:57.776Z,42.00
2023-02-17T22:06:27.877Z,41.73
2023-02-17T22:08:55.710Z,41.23
2023-02-17T22:11:25.801Z,43.13
2023-02-17T22:13:55.457Z,44.33
2023-02-17T22:16:23.641Z,41.73
2023-02-17T22:18:51.721Z,42.97
2023-02-17T22:21:20.925Z,43.37
2023-02-17T22:23:49.087Z,42.77
2023-02-17T22:26:18.511Z,41.30
2023-02-17T22:28:46.822Z,42.13
2023-02-17T22:31:15.800Z,43.47
2023-02-17T22:33:44.246Z,43.43
2023-02-17T22:36:14.469Z,45.37
2023-02-17T22:41:29.665Z,44.10
2023-02-17T22:43:57.438Z,43.23
2023-02-17T22:46:27.248Z,41.27
2023-02-17T22:48:56.554Z,44.30
2023-02-17T22:51:26.185Z,43.80
2023-02-17T22:53:54.139Z,45.33
2023-02-17T22:56:22.221Z,42.20
2023-02-17T22:58:55.737Z,44.60
2023-02-17T23:01:24.007Z,44.47
2023-02-17T23:03:54.425Z,46.10
2023-02-17T23:06:24.790Z,43.73
2023-02-17T23:08:52.963Z,42.00
2023-02-17T23:11:43.462Z,46.20
2023-02-17T23:14:13.910Z,45.17
2023-02-17T23:16:41.810Z,43.70
2023-02-17T23:19:11.226Z,47.17
2023-02-17T23:21:40.665Z,45.70
2023-02-17T23:24:08.754Z,47.30
2023-02-17T23:26:36.641Z,48.70
2023-02-17T23:29:04.575Z,48.03
2023-02-17T23:31:34.300Z,47.07
2023-02-17T23:34:02.069Z,47.23
2023-02-17T23:36:29.835Z,47.77
2023-02-17T23:41:32.798Z,50.53
2023-02-17T23:44:00.565Z,51.30
2023-02-17T23:46:29.733Z,50.73
2023-02-17T23:48:59.985Z,49.93
2023-02-17T23:51:27.790Z,52.70
2023-02-17T23:53:55.680Z,49.97
2023-02-17T23:56:26.486Z,51.27
2023-02-17T23:58:54.814Z,50.03
